createdAt,value
2023-04-17T05:00:50.831Z,100930.41
2023-04-17T05:03:28.032Z,100931.22
2023-04-17T05:05:56.412Z,100940.97
2023-04-17T05:08:27.476Z,100941.84
2023-04-17T05:11:02.628Z,100940.09
2023-04-17T05:13:32.234Z,100942.75
2023-04-17T05:16:01.475Z,100939.28
2023-04-17T05:18:29.563Z,100943.63
2023-04-17T05:20:56.509Z,100945.41
2023-04-17T05:23:25.332Z,100949.78
2023-04-17T05:25:52.576Z,100943.63
2023-04-17T05:28:19.191Z,100950.66
2023-04-17T05:30:47.236Z,100956.88
2023-04-17T05:33:19.457Z,100963.97
2023-04-17T05:36:00.198Z,100963.00
2023-04-17T05:38:26.935Z,100972.69
2023-04-17T05:40:54.821Z,100970.06
2023-04-17T05:43:21.485Z,100971.81
2023-04-17T05:45:49.315Z,100980.69
2023-04-17T05:48:16.196Z,100973.72
2023-04-17T05:50:43.598Z,100967.56
2023-04-17T05:53:10.753Z,100975.44
2023-04-17T05:55:45.502Z,100973.59
2023-04-17T06:00:45.186Z,100982.38
2023-04-17T06:03:17.977Z,100976.16
2023-04-17T06:05:47.418Z,100977.00
2023-04-17T06:08:15.578Z,100991.13
2023-04-17T06:10:45.976Z,100988.50
2023-04-17T06:13:12.783Z,100988.47
2023-04-17T06:15:44.290Z,100986.75
2023-04-17T06:18:11.035Z,100991.19
2023-04-17T06:20:40.017Z,100993.88
2023-04-17T06:23:06.954Z,100988.50
2023-04-17T06:25:33.853Z,100998.19
2023-04-17T06:28:01.114Z,100999.06
2023-04-17T06:30:28.568Z,101000.81
2023-04-17T06:33:09.581Z,101005.19
2023-04-17T06:35:37.656Z,101014.03
2023-04-17T06:38:25.214Z,101006.06
2023-04-17T06:40:52.798Z,101013.09
2023-04-17T06:43:19.886Z,101018.34
2023-04-17T06:45:48.330Z,101012.13
2023-04-17T06:48:14.925Z,101013.78
2023-04-17T06:50:42.706Z,101019.03
2023-04-17T06:53:09.256Z,101010.13
2023-04-17T06:55:36.817Z,101017.09
2023-04-17T06:58:04.893Z,101034.59
2023-04-17T07:00:32.237Z,101033.66
2023-04-17T07:02:58.909Z,101023.78
2023-04-17T07:05:26.310Z,101025.38
2023-04-17T07:07:52.952Z,101031.44
2023-04-17T07:10:20.126Z,101030.44
2023-04-17T07:12:46.860Z,101041.91
2023-04-17T07:15:14.382Z,101037.59
2023-04-17T07:17:40.993Z,101037.47
2023-04-17T07:20:08.803Z,101037.31
2023-04-17T07:22:35.642Z,101046.06
2023-04-17T07:25:02.849Z,101049.47
2023-04-17T07:27:29.518Z,101052.78
2023-04-17T07:29:56.785Z,101051.78
2023-04-17T07:32:26.435Z,101045.47
2023-04-17T07:34:53.335Z,101050.63
2023-04-17T07:37:20.536Z,101045.19
2023-04-17T07:39:50.286Z,101050.34
2023-04-17T07:42:17.369Z,101051.81
2023-04-17T07:44:43.998Z,101048.22
2023-04-17T07:47:11.550Z,101046.25
2023-04-17T07:49:40.713Z,101051.19
2023-04-17T07:52:08.118Z,101045.75
2023-04-17T07:54:34.712Z,101038.53
2023-04-17T07:57:03.862Z,101041.81
2023-04-17T07:59:30.667Z,101056.84
2023-04-17T08:01:58.023Z,101050.41
2023-04-17T08:04:25.621Z,101039.66
2023-04-17T08:06:53.161Z,101048.19
2023-04-17T08:09:22.175Z,101050.84
2023-04-17T08:11:57.166Z,101054.97
2023-04-17T08:14:25.773Z,101052.09
2023-04-17T08:16:53.166Z,101047.53
2023-04-17T08:19:19.902Z,101051.75
2023-04-17T08:21:50.994Z,101052.41
2023-04-17T08:24:19.728Z,101061.72
2023-04-17T08:26:48.060Z,101063.22
2023-04-17T08:29:14.950Z,101071.22
2023-04-17T08:31:42.696Z,101058.44
2023-04-17T08:34:14.891Z,101060.78
2023-04-17T08:36:43.413Z,101062.09
2023-04-17T08:39:13.860Z,101072.53
2023-04-17T08:41:51.444Z,101073.16
2023-04-17T08:44:21.247Z,101077.50
2023-04-17T08:46:49.917Z,101072.63
2023-04-17T08:49:16.700Z,101089.19
2023-04-17T08:51:44.699Z,101085.28
2023-04-17T08:54:11.410Z,101088.84
2023-04-17T08:56:39.284Z,101084.66
2023-04-17T08:59:06.166Z,101084.09
2023-04-17T09:01:35.201Z,101089.00
2023-04-17T09:04:02.178Z,101079.13
2023-04-17T09:06:48.465Z,101087.50
2023-04-17T09:09:15.683Z,101087.72
2023-04-17T09:11:43.011Z,101099.84
2023-04-17T09:14:29.761Z,101102.94
2023-04-17T09:16:58.092Z,101103.31
2023-04-17T09:19:24.618Z,101091.38
2023-04-17T09:21:54.784Z,101094.94
2023-04-17T09:24:35.178Z,101097.72
2023-04-17T09:27:21.966Z,101090.34
2023-04-17T09:30:01.227Z,101098.56
2023-04-17T09:32:29.546Z,101098.69
2023-04-17T09:34:59.221Z,101095.00
2023-04-17T09:37:45.991Z,101094.25
2023-04-17T09:40:12.950Z,101102.72
2023-04-17T09:42:57.245Z,101092.94
2023-04-17T09:45:25.858Z,101095.75
2023-04-17T09:47:55.818Z,101091.97
2023-04-17T09:50:25.212Z,101095.94
2023-04-17T09:52:52.611Z,101092.69
2023-04-17T09:55:30.225Z,101093.78
2023-04-17T09:57:58.852Z,101095.44
2023-04-17T10:00:27.890Z,101086.78
2023-04-17T10:02:56.646Z,101085.22
2023-04-17T10:05:30.016Z,101086.00
2023-04-17T10:07:57.082Z,101086.09
2023-04-17T10:10:34.120Z,101087.94
2023-04-17T10:13:03.029Z,101091.38
2023-04-17T10:15:31.443Z,101084.13
2023-04-17T10:18:18.678Z,101086.13
2023-04-17T10:20:48.762Z,101089.66
2023-04-17T10:23:32.263Z,101084.66
2023-04-17T10:26:29.825Z,101085.59
2023-04-17T10:29:00.025Z,101077.81
2023-04-17T10:32:04.784Z,101082.47
2023-04-17T10:34:38.306Z,101081.03
2023-04-17T10:37:05.587Z,101075.81
2023-04-17T10:39:53.364Z,101074.50
2023-04-17T10:42:21.832Z,101066.94
2023-04-17T10:44:49.584Z,101073.47
2023-04-17T10:47:20.840Z,101068.03
2023-04-17T10:49:59.753Z,101060.69
2023-04-17T10:52:33.003Z,101059.28
2023-04-17T10:55:16.234Z,101053.09
2023-04-17T10:57:55.626Z,101054.53
2023-04-17T11:00:30.854Z,101052.97
2023-04-17T11:02:58.712Z,101061.84
2023-04-17T11:05:25.395Z,101050.28
2023-04-17T11:07:52.835Z,101055.25
2023-04-17T11:10:21.009Z,101056.75
2023-04-17T11:12:49.501Z,101054.47
2023-04-17T11:15:19.214Z,101055.63
2023-04-17T11:17:48.304Z,101057.19
2023-04-17T11:20:17.435Z,101062.06
2023-04-17T11:22:45.202Z,101053.31
2023-04-17T11:25:27.074Z,101049.50
2023-04-17T11:27:58.294Z,101050.66
2023-04-17T11:30:42.544Z,101051.69
2023-04-17T11:33:09.282Z,101047.47
2023-04-17T11:35:38.965Z,101049.13
2023-04-17T11:38:06.567Z,101047.56
2023-04-17T11:40:34.062Z,101044.91
2023-04-17T11:43:10.130Z,101043.41
2023-04-17T11:45:38.009Z,101049.22
2023-04-17T11:48:04.822Z,101047.50
2023-04-17T11:50:33.140Z,101049.88
2023-04-17T11:53:01.246Z,101036.81
2023-04-17T11:55:31.278Z,101038.78
2023-04-17T11:58:00.529Z,101035.00
2023-04-17T12:00:29.705Z,101041.63
2023-04-17T12:02:58.860Z,101040.19
2023-04-17T12:05:27.138Z,101041.56
2023-04-17T12:08:04.797Z,101051.22
2023-04-17T12:10:42.938Z,101052.16
2023-04-17T12:13:10.920Z,101033.63
2023-04-17T12:15:38.837Z,101037.50
2023-04-17T12:18:06.417Z,101046.44
2023-04-17T12:20:34.026Z,101036.72
2023-04-17T12:23:01.251Z,101031.34
2023-04-17T12:25:28.038Z,101031.94
2023-04-17T12:27:57.257Z,101028.13
2023-04-17T12:30:24.333Z,101020.88
2023-04-17T12:32:52.458Z,101038.56
2023-04-17T12:35:20.535Z,101032.88
2023-04-17T12:37:48.919Z,101045.19
2023-04-17T12:40:16.836Z,101039.06
2023-04-17T12:42:49.184Z,101037.19
2023-04-17T12:45:17.124Z,101035.63
2023-04-17T12:47:44.525Z,101038.16
2023-04-17T12:50:12.131Z,101037.69
2023-04-17T12:52:40.636Z,101042.94
2023-04-17T12:55:08.326Z,101036.53
2023-04-17T12:57:36.914Z,101033.44
2023-04-17T13:00:06.543Z,101035.75
2023-04-17T13:02:33.803Z,101035.03
2023-04-17T13:05:00.833Z,101024.69
2023-04-17T13:07:29.045Z,101027.19
2023-04-17T13:09:55.800Z,101020.66
2023-04-17T13:12:23.223Z,101017.00
2023-04-17T13:14:49.813Z,101011.63
2023-04-17T13:17:17.671Z,101024.84
2023-04-17T13:19:44.584Z,101017.81
2023-04-17T13:22:12.606Z,101023.50
2023-04-17T13:24:39.466Z,101017.81
2023-04-17T13:27:06.870Z,101021.81
2023-04-17T13:29:33.465Z,101016.34
2023-04-17T13:32:00.360Z,101014.66
2023-04-17T13:34:27.048Z,101015.81
2023-04-17T13:36:57.581Z,101018.31
2023-04-17T13:39:24.360Z,101011.50
2023-04-17T13:41:51.684Z,101009.94
2023-04-17T13:44:18.730Z,101008.97
2023-04-17T13:46:46.343Z,101001.31
2023-04-17T13:49:13.301Z,100995.53
2023-04-17T13:51:40.874Z,101002.19
2023-04-17T13:54:08.609Z,100993.19
2023-04-17T13:56:35.592Z,100982.66
2023-04-17T13:59:03.732Z,100990.88
2023-04-17T14:01:30.754Z,100983.91
2023-04-17T14:04:00.399Z,100989.56
2023-04-17T14:06:28.796Z,100985.13
2023-04-17T14:08:56.057Z,100981.19
2023-04-17T14:11:24.636Z,100984.38
2023-04-17T14:13:51.632Z,100979.59
2023-04-17T14:16:19.700Z,100980.25
2023-04-17T14:18:48.349Z,100975.56
2023-04-17T14:21:40.775Z,100974.19
2023-04-17T14:24:07.376Z,100976.53
2023-04-17T14:26:34.758Z,100974.88
2023-04-17T14:29:01.440Z,100966.81
2023-04-17T14:31:28.893Z,100960.84
2023-04-17T14:33:55.732Z,100963.28
2023-04-17T14:36:22.688Z,100968.28
2023-04-17T14:38:51.201Z,100959.34
2023-04-17T14:41:19.003Z,100957.13
2023-04-17T14:43:45.730Z,100953.25
2023-04-17T14:46:13.059Z,100952.94
2023-04-17T14:48:54.142Z,100950.78
2023-04-17T14:51:24.140Z,100943.59
2023-04-17T14:53:52.892Z,100943.22
2023-04-17T14:56:21.970Z,100932.50
2023-04-17T14:58:48.809Z,100946.41
2023-04-17T15:01:16.297Z,100942.16
2023-04-17T15:03:46.788Z,100937.59
2023-04-17T15:06:16.525Z,100930.75
2023-04-17T15:08:43.236Z,100934.25
2023-04-17T15:11:10.758Z,100935.47
2023-04-17T15:13:37.575Z,100949.44
2023-04-17T15:16:05.029Z,100933.28
2023-04-17T15:18:32.104Z,100937.97
2023-04-17T15:20:59.306Z,100931.59
2023-04-17T15:23:26.531Z,100931.75
2023-04-17T15:25:57.813Z,100930.00
2023-04-17T15:28:24.934Z,100934.78
2023-04-17T15:30:52.287Z,100927.94
2023-04-17T15:33:19.195Z,100926.19
2023-04-17T15:35:46.517Z,100920.03
2023-04-17T15:38:13.163Z,100920.94
2023-04-17T15:40:40.526Z,100918.41
2023-04-17T15:43:07.237Z,100915.75
2023-04-17T15:45:33.823Z,100912.13
2023-04-17T15:48:01.631Z,100911.72
2023-04-17T15:50:29.024Z,100909.91
2023-04-17T15:52:55.676Z,100908.19
2023-04-17T15:55:22.956Z,100907.31
2023-04-17T15:57:49.551Z,100907.31
2023-04-17T16:00:17.197Z,100912.81
2023-04-17T16:02:47.563Z,100912.06
2023-04-17T16:05:18.180Z,100908.59
2023-04-17T16:07:45.502Z,100908.00
2023-04-17T16:10:16.380Z,100911.22
2023-04-17T16:12:44.473Z,100911.47
2023-04-17T16:15:15.139Z,100906.34
2023-04-17T16:17:41.956Z,100900.97
2023-04-17T16:20:11.234Z,100898.41
2023-04-17T16:22:37.927Z,100906.56
2023-04-17T16:25:06.588Z,100900.69
2023-04-17T16:27:33.652Z,100904.16
2023-04-17T16:30:00.885Z,100901.44
2023-04-17T16:32:27.639Z,100902.44
2023-04-17T16:34:54.922Z,100905.13
2023-04-17T16:37:21.607Z,100905.78
2023-04-17T16:39:49.069Z,100900.41
2023-04-17T16:42:15.705Z,100897.72
2023-04-17T16:44:45.806Z,100889.69
2023-04-17T16:47:14.260Z,100895.13
2023-04-17T16:49:42.556Z,100889.81
2023-04-17T16:52:09.355Z,100900.53
2023-04-17T16:54:36.715Z,100891.59
2023-04-17T16:57:03.507Z,100897.00
2023-04-17T16:59:30.708Z,100899.88
2023-04-17T17:01:57.914Z,100897.59
2023-04-17T17:04:25.685Z,100901.28
2023-04-17T17:06:52.392Z,100902.19
2023-04-17T17:09:20.586Z,100897.97
2023-04-17T17:11:47.870Z,100910.66
2023-04-17T17:14:16.371Z,100901.91
2023-04-17T17:16:43.034Z,100908.56
2023-04-17T17:19:10.860Z,100907.81
2023-04-17T17:21:38.374Z,100911.41
2023-04-17T17:24:06.320Z,100910.63
2023-04-17T17:26:32.997Z,100917.66
2023-04-17T17:29:00.494Z,100915.16
2023-04-17T17:31:30.371Z,100920.75
2023-04-17T17:34:11.977Z,100913.03
2023-04-17T17:36:49.615Z,100916.00
2023-04-17T17:39:16.915Z,100917.00
2023-04-17T17:41:47.476Z,100918.91
2023-04-17T17:44:15.228Z,100922.56
2023-04-17T17:46:45.999Z,100918.47
2023-04-17T17:49:13.545Z,100921.34
2023-04-17T17:51:45.939Z,100916.16
2023-04-17T17:56:54.916Z,100922.91
2023-04-17T17:59:23.951Z,100926.78
2023-04-17T18:01:54.710Z,100920.72
2023-04-17T18:04:22.817Z,100922.59
2023-04-17T18:07:03.617Z,100931.72
2023-04-17T18:09:31.025Z,100927.44
2023-04-17T18:11:57.754Z,100936.75
2023-04-17T18:14:24.714Z,100924.41
2023-04-17T18:16:51.371Z,100937.91
2023-04-17T18:19:18.272Z,100933.63
2023-04-17T18:21:46.028Z,100941.91
2023-04-17T18:24:14.934Z,100939.34
2023-04-17T18:26:41.497Z,100942.09
2023-04-17T18:29:08.737Z,100943.25
2023-04-17T18:31:35.335Z,100945.22
2023-04-17T18:34:03.132Z,100949.94
2023-04-17T18:36:30.696Z,100946.47
2023-04-17T18:38:57.836Z,100945.72
2023-04-17T18:41:26.161Z,100953.09
2023-04-17T18:43:53.321Z,100958.72
2023-04-17T18:46:19.970Z,100965.09
2023-04-17T18:48:47.184Z,100962.56
2023-04-17T18:51:17.515Z,100963.63
2023-04-17T18:53:44.876Z,100973.66
2023-04-17T18:56:13.541Z,100975.59
2023-04-17T18:58:40.851Z,100975.84
2023-04-17T19:01:12.842Z,100976.06
2023-04-17T19:03:41.155Z,100983.31
2023-04-17T19:06:08.053Z,100987.06
2023-04-17T19:08:36.327Z,100983.53
2023-04-17T19:11:03.147Z,100991.72
2023-04-17T19:13:30.645Z,100984.75
2023-04-17T19:15:57.587Z,100981.41
2023-04-17T19:18:24.860Z,100989.53
2023-04-17T19:20:51.421Z,100979.09
2023-04-17T19:23:18.629Z,100988.97
2023-04-17T19:25:49.809Z,100984.72
2023-04-17T19:28:17.062Z,100981.41
2023-04-17T19:30:43.658Z,100989.47
2023-04-17T19:33:11.054Z,100992.28
2023-04-17T19:35:37.695Z,100988.88
2023-04-17T19:38:04.579Z,100980.16
2023-04-17T19:40:31.929Z,100989.13
2023-04-17T19:43:01.488Z,100983.97
2023-04-17T19:45:28.528Z,100989.44
2023-04-17T19:47:56.894Z,100991.44
2023-04-17T19:50:27.411Z,100996.84
2023-04-17T19:52:55.693Z,100995.22
2023-04-17T19:55:23.132Z,100998.06
2023-04-17T19:57:50.851Z,100995.44
2023-04-17T20:00:18.265Z,100996.50
2023-04-17T20:02:45.035Z,100994.81
2023-04-17T20:05:11.770Z,100994.97
2023-04-17T20:07:38.349Z,100997.78
2023-04-17T20:10:06.167Z,101005.84
2023-04-17T20:12:33.065Z,101005.06
2023-04-17T20:14:59.694Z,101006.88
2023-04-17T20:17:26.652Z,101005.25
2023-04-17T20:19:53.959Z,101008.00
2023-04-17T20:22:20.548Z,101023.16
2023-04-17T20:24:50.908Z,101025.06
2023-04-17T20:27:18.126Z,101019.94
2023-04-17T20:29:45.315Z,101022.66
